»·PEaware :: N416JK KBXK-KBLH

N416JK :: KBXK-KBLH

FLIGHT INFORMATION

Flight Status: Arrived
Operator: Privately registered:
United States
More flights under this callsign
Pilot: John K. (4202)
Aircraft: PIPER PA-28R-201 ARROW
(P28R)
More flights by this aircraft type
Origin: KBXK Buckeye Mun
United States
Destination: KBLH Blythe
United States
More flights between these airports :: More routes between these airports
Route: BXK V16 BLH
File this flight plan on PilotEdge
Remarks:
Altitude:
(Current/Filed)
6,000ft
Speed:
(Current/Filed)
120kts
Departed: 14-Feb-20 09:30 AM
Arrived: 14-Feb-20 10:21 AM
Distance/Time
Traveled:
102nm/0:51
Distance/Time
To Go:
Arrived

Flight Plot

Page will automatically refresh every two minutes.

Flight plan parsing failed; only flown route is shown


Map Options




Map Legend


Flown Route
Filed Route
Departure Airport
Arrival Airport
Navaid (VOR, NDB)
Fix

Horizontal Profiles

Position Reports

Time Latitude Longitude Heading Altitude Ground
Speed
14-Feb-20 09:19 33.419972 -112.683950 91 1003ft 0kts
14-Feb-20 09:20 33.419972 -112.683950 91 1003ft 0kts
14-Feb-20 09:21 33.419972 -112.683950 91 1003ft 0kts
14-Feb-20 09:22 33.419972 -112.683950 91 1003ft 0kts
14-Feb-20 09:23 33.420747 -112.685015 224 1004ft 16kts
14-Feb-20 09:24 33.426898 -112.684756 1 1015ft 31kts
14-Feb-20 09:25 33.430035 -112.684810 283 1019ft 6kts
14-Feb-20 09:26 33.430066 -112.684988 275 1019ft 0kts
14-Feb-20 09:27 33.430066 -112.684988 275 1019ft 0kts
14-Feb-20 09:28 33.429709 -112.685941 179 1019ft 8kts
14-Feb-20 09:29 33.407913 -112.685395 175 1353ft 109kts
14-Feb-20 09:30 33.396883 -112.705424 301 2074ft 108kts
14-Feb-20 09:31 33.409621 -112.734820 293 2950ft 99kts
14-Feb-20 09:32 33.421870 -112.765123 303 3700ft 103kts
14-Feb-20 09:33 33.435231 -112.790117 303 4347ft 103kts
14-Feb-20 09:34 33.450436 -112.818673 302 5094ft 101kts
14-Feb-20 09:35 33.455486 -112.852429 275 5740ft 115kts
14-Feb-20 09:36 33.459158 -112.894307 274 5982ft 136kts
14-Feb-20 09:37 33.463014 -112.941006 274 5977ft 142kts
14-Feb-20 09:38 33.466814 -112.987999 274 5977ft 140kts
14-Feb-20 09:39 33.470510 -113.034155 274 5977ft 138kts
14-Feb-20 09:40 33.474146 -113.079806 274 5985ft 137kts
14-Feb-20 09:41 33.477758 -113.125361 274 5987ft 137kts
14-Feb-20 09:42 33.481357 -113.170992 274 5987ft 137kts
14-Feb-20 09:43 33.484529 -113.212516 274 5987ft 137kts
14-Feb-20 09:44 33.487251 -113.248275 275 5979ft 135kts
14-Feb-20 09:45 33.490716 -113.292635 275 5977ft 132kts
14-Feb-20 09:46 33.494086 -113.336581 275 5977ft 131kts
14-Feb-20 09:47 33.497505 -113.380388 275 5977ft 132kts
14-Feb-20 09:48 33.500885 -113.424218 275 5977ft 132kts
14-Feb-20 09:49 33.504234 -113.467974 275 5977ft 132kts
14-Feb-20 09:50 33.507567 -113.511749 275 5977ft 132kts
14-Feb-20 09:51 33.510888 -113.555582 275 5976ft 132kts
14-Feb-20 09:52 33.514192 -113.599389 275 5974ft 132kts
14-Feb-20 09:53 33.517484 -113.643270 275 5972ft 132kts
14-Feb-20 09:54 33.520628 -113.685338 274 5971ft 132kts
14-Feb-20 09:55 33.523887 -113.729159 274 5970ft 131kts
14-Feb-20 09:56 33.527132 -113.773005 274 5969ft 131kts
14-Feb-20 09:57 33.530345 -113.816600 274 5969ft 131kts
14-Feb-20 09:58 33.533549 -113.860425 274 5970ft 131kts
14-Feb-20 09:59 33.536739 -113.904172 274 5970ft 131kts
14-Feb-20 10:00 33.539907 -113.947826 274 5970ft 131kts
14-Feb-20 10:01 33.543063 -113.991549 274 5971ft 131kts
14-Feb-20 10:02 33.546193 -114.035217 274 5972ft 131kts
14-Feb-20 10:03 33.549315 -114.078987 274 5973ft 131kts
14-Feb-20 10:04 33.552416 -114.122640 274 5974ft 131kts
14-Feb-20 10:05 33.555514 -114.166333 274 5976ft 131kts
14-Feb-20 10:06 33.558586 -114.209954 274 5977ft 131kts
14-Feb-20 10:07 33.561652 -114.253747 274 5977ft 131kts
14-Feb-20 10:08 33.564695 -114.297412 274 5977ft 131kts
14-Feb-20 10:09 33.567723 -114.341119 274 5977ft 131kts
14-Feb-20 10:10 33.575310 -114.383740 283 5788ft 131kts
14-Feb-20 10:11 33.577860 -114.427271 275 5450ft 130kts
14-Feb-20 10:12 33.580050 -114.470663 280 4994ft 130kts
14-Feb-20 10:13 33.588965 -114.507863 278 4822ft 137kts
14-Feb-20 10:14 33.594033 -114.548050 280 4231ft 135kts
14-Feb-20 10:15 33.600225 -114.592481 280 3212ft 135kts
14-Feb-20 10:16 33.608103 -114.626324 289 2066ft 93kts
14-Feb-20 10:17 33.614626 -114.650016 279 1298ft 68kts
14-Feb-20 10:18 33.617599 -114.671872 269 1012ft 69kts
14-Feb-20 10:19 33.616595 -114.694319 263 735ft 69kts
14-Feb-20 10:20 33.616513 -114.713453 268 392ft 36kts
14-Feb-20 10:21 33.614509 -114.713476 129 392ft 12kts

Navigation Log

Ident Type
Flight plan parsing failed, navigation log unavailable